Time;durP1;ratioP1;P1;durP2;ratioP2;P2;SDS_P1;SDS_P2;PMS_P1;PMS_P2;Temp;Humidity;BMP_temperature;BMP_pressure;BME280_temperature;BME280_humidity;BME280_pressure;Samples;Min_cycle;Max_cycle;Signal;HPM_P1;HPM_P2
2023/10/11 00:02:44;;;;;;;9.52;4.35;;;14.70;99.90;;;;;;7299462;32;20126;-56
2023/10/11 00:06:49;;;;;;;7.15;4.45;;;14.60;99.90;;;;;;7296108;32;20179;-56
2023/10/11 00:10:55;;;;;;;7.18;4.45;;;14.70;99.90;;;;;;7298187;32;20666;-57
2023/10/11 00:14:57;;;;;;;9.18;4.15;;;14.70;99.90;;;;;;7297346;32;20273;-56
2023/10/11 00:18:59;;;;;;;10.80;4.80;;;14.60;99.90;;;;;;7293860;32;20123;-55
2023/10/11 00:23:01;;;;;;;8.45;4.40;;;14.50;99.90;;;;;;7299764;32;20178;-56
2023/10/11 00:27:03;;;;;;;10.85;4.70;;;14.40;99.90;;;;;;7295753;32;20107;-55
2023/10/11 00:31:12;;;;;;;7.40;4.70;;;14.30;99.90;;;;;;7296294;32;20103;-55
2023/10/11 00:35:24;;;;;;;7.30;4.15;;;14.20;99.90;;;;;;7299960;32;20218;-55
2023/10/11 00:39:27;;;;;;;7.80;4.45;;;14.10;99.90;;;;;;7293371;32;20134;-55
2023/10/11 00:43:34;;;;;;;8.65;4.45;;;14.00;99.90;;;;;;7293111;32;20254;-56
2023/10/11 00:47:40;;;;;;;10.60;4.60;;;13.80;99.90;;;;;;7289850;32;20127;-56
2023/10/11 00:51:46;;;;;;;10.23;4.87;;;13.70;99.90;;;;;;7300520;32;20147;-56
2023/10/11 00:55:48;;;;;;;8.93;4.78;;;13.60;99.90;;;;;;7298978;32;20288;-56
2023/10/11 00:59:50;;;;;;;10.82;4.57;;;13.70;99.90;;;;;;7297435;32;20182;-56
2023/10/11 01:03:53;;;;;;;8.15;4.45;;;13.50;99.90;;;;;;7301591;32;20227;-56
2023/10/11 01:07:55;;;;;;;8.40;4.35;;;13.50;99.90;;;;;;7300358;32;20108;-56
2023/10/11 01:11:57;;;;;;;8.90;4.65;;;13.50;99.90;;;;;;7299510;32;20160;-56
2023/10/11 01:16:05;;;;;;;7.37;4.65;;;13.50;99.90;;;;;;7303022;32;20614;-55
2023/10/11 01:20:14;;;;;;;6.28;4.50;;;13.40;99.90;;;;;;7300153;32;20123;-56
2023/10/11 01:24:16;;;;;;;8.95;4.80;;;13.40;99.90;;;;;;7303291;32;20104;-56
2023/10/11 01:28:18;;;;;;;10.65;4.50;;;13.40;99.90;;;;;;7304144;32;20619;-56
2023/10/11 01:32:20;;;;;;;8.77;4.95;;;13.40;99.90;;;;;;7298455;32;20611;-55
2023/10/11 01:36:21;;;;;;;8.20;4.68;;;13.40;99.90;;;;;;7301135;32;20284;-56
2023/10/11 01:40:24;;;;;;;12.65;5.10;;;13.30;99.90;;;;;;7301522;32;20104;-56
2023/10/11 01:44:26;;;;;;;8.25;4.72;;;13.30;99.90;;;;;;7296398;32;20134;-56
2023/10/11 01:48:27;;;;;;;9.68;4.57;;;13.30;99.90;;;;;;7297086;32;20675;-56
2023/10/11 01:52:34;;;;;;;9.90;4.12;;;13.30;99.90;;;;;;7298477;32;20123;-56
2023/10/11 01:56:37;;;;;;;8.40;4.50;;;13.30;99.90;;;;;;7301981;32;20118;-56
2023/10/11 02:00:39;;;;;;;8.05;4.70;;;13.40;99.90;;;;;;7295584;32;20191;-56
2023/10/11 02:04:41;;;;;;;8.27;5.05;;;13.40;99.90;;;;;;7293844;32;20100;-55
2023/10/11 02:08:43;;;;;;;7.25;4.53;;;13.40;99.90;;;;;;7290724;32;20186;-56
2023/10/11 02:12:45;;;;;;;12.85;4.62;;;13.40;99.90;;;;;;7298783;32;20544;-56
2023/10/11 02:16:46;;;;;;;7.78;5.00;;;13.50;99.90;;;;;;7295381;32;21081;-56
2023/10/11 02:20:48;;;;;;;9.82;5.10;;;13.30;99.90;;;;;;7292589;32;20146;-56
2023/10/11 02:24:51;;;;;;;9.00;5.12;;;13.30;99.90;;;;;;7301250;32;20899;-55
2023/10/11 02:28:54;;;;;;;13.13;5.25;;;13.20;99.90;;;;;;7296981;32;20499;-56
2023/10/11 02:32:58;;;;;;;9.23;4.55;;;13.20;99.90;;;;;;7298464;32;20173;-56
2023/10/11 02:37:10;;;;;;;11.25;4.85;;;13.10;99.90;;;;;;7297759;32;20214;-56
2023/10/11 02:41:12;;;;;;;10.77;4.85;;;13.10;99.90;;;;;;7300699;32;20305;-56
2023/10/11 02:45:18;;;;;;;7.40;4.12;;;13.10;99.90;;;;;;7299570;32;20120;-56
2023/10/11 02:49:20;;;;;;;9.13;4.22;;;13.00;99.90;;;;;;7293550;32;20185;-56
2023/10/11 02:53:23;;;;;;;8.05;4.53;;;13.00;99.90;;;;;;7296021;32;20108;-56
2023/10/11 02:57:25;;;;;;;11.55;4.57;;;12.90;99.90;;;;;;7296851;32;20100;-55
2023/10/11 03:01:31;;;;;;;12.15;4.62;;;12.90;99.90;;;;;;7298104;32;20099;-56
2023/10/11 03:05:37;;;;;;;14.97;5.23;;;12.80;99.90;;;;;;7297364;32;20122;-56
2023/10/11 03:09:40;;;;;;;9.40;4.75;;;12.70;99.90;;;;;;7295121;32;20183;-56
2023/10/11 03:13:43;;;;;;;10.43;4.80;;;12.70;99.90;;;;;;7287314;32;20631;-56
2023/10/11 03:17:46;;;;;;;8.73;4.40;;;12.70;99.90;;;;;;7298094;32;20149;-56
2023/10/11 03:21:53;;;;;;;9.50;4.75;;;12.60;99.90;;;;;;7299065;32;20251;-56
2023/10/11 03:25:55;;;;;;;13.55;5.37;;;12.60;99.90;;;;;;7296293;32;20118;-56
2023/10/11 03:29:59;;;;;;;12.48;5.07;;;12.60;99.90;;;;;;7300224;32;20131;-56
2023/10/11 03:34:10;;;;;;;10.88;5.43;;;12.50;99.90;;;;;;7297870;32;20198;-57
2023/10/11 03:38:20;;;;;;;11.68;4.75;;;12.50;99.90;;;;;;7297955;32;20247;-56
2023/10/11 03:42:39;;;;;;;10.90;4.97;;;12.40;99.90;;;;;;7293597;32;20139;-56
2023/10/11 03:46:41;;;;;;;10.40;4.53;;;12.40;99.90;;;;;;7298774;32;20556;-56
2023/10/11 03:50:52;;;;;;;12.32;5.20;;;12.40;99.90;;;;;;7299174;32;20313;-56
2023/10/11 03:55:04;;;;;;;9.10;5.10;;;12.40;99.90;;;;;;7298225;32;20154;-56
2023/10/11 03:59:06;;;;;;;8.50;4.47;;;12.40;99.90;;;;;;7297314;32;20661;-57
2023/10/11 04:03:08;;;;;;;12.20;5.32;;;12.30;99.90;;;;;;7295880;32;20502;-56
2023/10/11 04:07:13;;;;;;;8.13;4.43;;;12.30;99.90;;;;;;7299825;32;20179;-56
2023/10/11 04:11:19;;;;;;;13.00;5.28;;;12.30;99.90;;;;;;7296808;32;20232;-56
2023/10/11 04:15:30;;;;;;;9.02;4.45;;;12.30;99.90;;;;;;7298530;32;20100;-56
2023/10/11 04:19:32;;;;;;;9.55;4.95;;;12.30;99.90;;;;;;7295399;32;20206;-56
2023/10/11 04:23:35;;;;;;;12.23;5.40;;;12.30;99.90;;;;;;7297370;32;20104;-56
2023/10/11 04:32:41;;;;;;;11.73;4.78;;;12.20;99.90;;;;;;7304391;32;20120;-56
2023/10/11 04:36:10;;;;;;;14.38;5.40;;;12.20;99.90;;;;;;7294706;32;20312;-56
2023/10/11 04:40:35;;;;;;;11.93;4.68;;;12.20;99.90;;;;;;7302831;32;20199;-56
2023/10/11 04:44:59;;;;;;;11.50;4.25;;;12.20;99.90;;;;;;7299652;32;20590;-56
2023/10/11 04:49:18;;;;;;;6.45;4.45;;;12.20;99.90;;;;;;7302469;32;20104;-56
2023/10/11 04:53:22;;;;;;;12.98;4.40;;;12.20;99.90;;;;;;7302177;32;20122;-56
2023/10/11 04:57:48;;;;;;;12.98;4.87;;;12.10;99.90;;;;;;7302676;32;20274;-57
2023/10/11 05:06:09;;;;;;;9.75;5.45;;;12.30;99.90;;;;;;7297997;32;20291;-56
2023/10/11 05:10:32;;;;;;;13.75;5.05;;;12.40;99.90;;;;;;7297306;32;20095;-57
2023/10/11 05:18:47;;;;;;;12.32;4.50;;;12.50;99.90;;;;;;7294929;32;20115;-57
2023/10/11 05:22:49;;;;;;;9.25;4.70;;;12.70;99.90;;;;;;7297001;32;20095;-57
2023/10/11 05:27:03;;;;;;;9.27;4.62;;;12.80;99.90;;;;;;7298832;32;20277;-57
2023/10/11 05:52:19;;;;;;;11.25;4.62;;;13.00;99.90;;;;;;7292415;32;20828;-58
2023/10/11 05:56:21;;;;;;;10.55;4.93;;;13.00;99.90;;;;;;7299029;32;20660;-58
2023/10/11 06:00:26;;;;;;;9.85;4.62;;;13.20;99.90;;;;;;7298469;32;20207;-57
2023/10/11 06:04:28;;;;;;;12.80;4.62;;;13.20;99.90;;;;;;7295559;32;20237;-57
2023/10/11 06:08:31;;;;;;;12.25;4.70;;;13.30;99.90;;;;;;7295985;32;21681;-58
2023/10/11 06:12:33;;;;;;;11.48;5.03;;;13.30;99.90;;;;;;7295041;32;20119;-58
2023/10/11 06:16:39;;;;;;;16.48;5.50;;;13.40;99.90;;;;;;7296660;32;20594;-58
2023/10/11 06:21:01;;;;;;;12.43;4.97;;;13.40;99.90;;;;;;7296754;32;20341;-58
2023/10/11 06:25:07;;;;;;;12.35;4.82;;;13.50;99.90;;;;;;7296574;32;20610;-57
2023/10/11 06:29:15;;;;;;;11.43;4.67;;;13.60;99.90;;;;;;7296295;32;20104;-58
2023/10/11 06:33:21;;;;;;;13.62;5.43;;;13.70;99.90;;;;;;7295323;32;20103;-58
2023/10/11 06:37:26;;;;;;;12.88;4.43;;;13.80;99.90;;;;;;7296113;32;20186;-58
2023/10/11 06:41:37;;;;;;;9.65;4.82;;;14.00;99.90;;;;;;7298506;32;20329;-57
2023/10/11 06:45:42;;;;;;;13.50;4.40;;;14.20;99.90;;;;;;7293279;32;20108;-57
2023/10/11 06:49:44;;;;;;;9.95;4.45;;;14.30;99.90;;;;;;7296491;32;20096;-58
2023/10/11 06:53:46;;;;;;;9.07;4.22;;;14.50;99.90;;;;;;7296715;32;20178;-59
2023/10/11 06:57:52;;;;;;;8.00;4.00;;;14.60;99.90;;;;;;7297264;32;20138;-57
2023/10/11 07:01:54;;;;;;;9.88;3.80;;;14.70;99.90;;;;;;7297254;32;20183;-58
2023/10/11 07:06:00;;;;;;;9.50;4.12;;;14.70;99.90;;;;;;7298715;32;20142;-57
2023/10/11 07:10:27;;;;;;;13.57;4.18;;;14.80;99.90;;;;;;7297772;32;20179;-58
2023/10/11 07:14:28;;;;;;;9.43;3.97;;;14.90;99.90;;;;;;7291723;32;20169;-59
2023/10/11 07:18:33;;;;;;;13.77;4.10;;;14.90;99.90;;;;;;7296746;32;20227;-57
2023/10/11 07:22:39;;;;;;;8.82;4.28;;;15.00;99.90;;;;;;7298133;32;20108;-58
2023/10/11 07:30:47;;;;;;;9.93;3.65;;;15.30;99.90;;;;;;7292510;32;20135;-57
2023/10/11 07:34:49;;;;;;;9.38;4.50;;;15.30;99.90;;;;;;7294518;32;20316;-58
2023/10/11 07:38:54;;;;;;;9.70;3.80;;;15.40;99.90;;;;;;7294857;32;20209;-58
2023/10/11 07:42:57;;;;;;;9.80;3.70;;;15.60;99.90;;;;;;7299473;32;20146;-57
2023/10/11 07:46:58;;;;;;;8.18;4.00;;;15.70;99.90;;;;;;7292656;32;20144;-58
2023/10/11 07:51:09;;;;;;;10.48;3.58;;;15.90;99.90;;;;;;7286010;32;20499;-57
2023/10/11 07:55:12;;;;;;;10.95;4.10;;;16.00;99.90;;;;;;7292319;32;20250;-58
2023/10/11 07:59:16;;;;;;;12.02;4.45;;;16.10;99.90;;;;;;7295397;32;20201;-57
2023/10/11 08:03:18;;;;;;;9.38;4.25;;;16.30;99.90;;;;;;7298628;32;20100;-57
2023/10/11 08:07:21;;;;;;;10.23;4.12;;;16.50;99.90;;;;;;7296531;32;20107;-56
2023/10/11 08:11:23;;;;;;;14.55;3.97;;;16.70;99.90;;;;;;7300995;32;20127;-56
2023/10/11 08:15:25;;;;;;;7.53;3.80;;;16.90;99.90;;;;;;7296594;32;20206;-57
2023/10/11 08:19:27;;;;;;;12.68;4.93;;;16.90;99.90;;;;;;7298519;32;20268;-57
2023/10/11 08:23:29;;;;;;;11.52;4.30;;;17.00;99.90;;;;;;7300617;32;20104;-57
2023/10/11 08:27:31;;;;;;;9.98;4.32;;;17.20;99.90;;;;;;7301853;32;20207;-57
2023/10/11 08:31:37;;;;;;;9.80;4.60;;;17.20;99.90;;;;;;7303804;32;20272;-57
2023/10/11 08:35:46;;;;;;;10.00;4.07;;;17.30;99.90;;;;;;7299285;32;20181;-57
2023/10/11 08:39:47;;;;;;;10.98;4.12;;;17.40;99.90;;;;;;7303555;32;20238;-56
2023/10/11 08:43:50;;;;;;;9.75;4.10;;;17.50;99.90;;;;;;7297371;32;20168;-57
2023/10/11 08:47:53;;;;;;;9.18;4.15;;;17.60;99.90;;;;;;7300207;32;20489;-58
2023/10/11 08:51:56;;;;;;;8.07;4.20;;;17.80;99.90;;;;;;7305588;32;20150;-57
2023/10/11 08:56:02;;;;;;;9.43;3.83;;;18.00;99.90;;;;;;7299924;32;20139;-58
2023/10/11 09:00:17;;;;;;;16.05;4.03;;;18.30;99.90;;;;;;7299904;32;20233;-58
2023/10/11 09:04:26;;;;;;;7.57;3.37;;;18.40;99.90;;;;;;7296476;32;20108;-57
2023/10/11 09:08:35;;;;;;;10.48;4.12;;;18.50;99.90;;;;;;7297517;32;20123;-57
2023/10/11 09:12:45;;;;;;;12.02;3.78;;;18.80;99.90;;;;;;7303045;32;20133;-56
2023/10/11 09:16:47;;;;;;;16.05;3.87;;;19.10;99.90;;;;;;7303697;32;20116;-58
2023/10/11 09:21:09;;;;;;;8.57;3.33;;;19.30;99.90;;;;;;7303274;32;20127;-59
2023/10/11 09:25:21;;;;;;;9.38;4.15;;;19.70;99.90;;;;;;7298938;32;20135;-57
2023/10/11 09:29:26;;;;;;;8.57;3.65;;;20.00;99.90;;;;;;7293700;32;20134;-57
2023/10/11 09:33:38;;;;;;;11.12;3.95;;;20.40;99.90;;;;;;7296170;32;20222;-57
2023/10/11 09:37:40;;;;;;;9.27;3.67;;;20.80;99.90;;;;;;7302527;32;20096;-57
2023/10/11 09:41:44;;;;;;;7.57;3.22;;;21.20;99.90;;;;;;7299591;32;20172;-57
2023/10/11 09:45:53;;;;;;;8.68;3.80;;;21.50;99.90;;;;;;7300065;32;20538;-57
2023/10/11 09:49:57;;;;;;;10.65;3.80;;;21.90;99.90;;;;;;7304565;32;20147;-57
2023/10/11 09:54:06;;;;;;;9.40;3.25;;;22.00;99.90;;;;;;7304057;32;20780;-57
2023/10/11 09:58:41;;;;;;;7.80;3.67;;;22.10;99.90;;;;;;7299354;32;20152;-56
2023/10/11 10:02:50;;;;;;;10.02;3.50;;;22.40;99.90;;;;;;7295141;32;20115;-56
2023/10/11 10:07:11;;;;;;;6.97;3.10;;;22.10;99.90;;;;;;7300585;32;20225;-54
2023/10/11 10:11:13;;;;;;;12.50;3.30;;;21.90;99.90;;;;;;7301116;32;20108;-54
2023/10/11 10:15:20;;;;;;;5.25;3.37;;;21.70;99.90;;;;;;7297949;32;20644;-54
2023/10/11 10:19:25;;;;;;;9.57;3.78;;;21.70;99.90;;;;;;7290659;32;20100;-54
2023/10/11 10:23:32;;;;;;;7.72;3.62;;;21.70;99.90;;;;;;7302353;32;20107;-55
2023/10/11 10:27:35;;;;;;;10.60;3.60;;;21.60;99.90;;;;;;7302466;32;20311;-55
2023/10/11 10:32:03;;;;;;;15.65;3.60;;;21.70;99.90;;;;;;7298139;32;20202;-57
2023/10/11 10:36:17;;;;;;;13.68;3.58;;;21.80;99.90;;;;;;7297870;32;20163;-58
2023/10/11 10:40:27;;;;;;;9.73;3.42;;;21.70;99.90;;;;;;7297686;32;20134;-57
2023/10/11 10:44:31;;;;;;;13.68;3.62;;;21.60;99.90;;;;;;7297258;32;20872;-57
2023/10/11 10:48:43;;;;;;;11.80;3.97;;;21.60;99.90;;;;;;7292906;32;20115;-58
2023/10/11 10:52:51;;;;;;;16.42;3.87;;;21.60;99.90;;;;;;7295060;32;20108;-59
2023/10/11 10:56:53;;;;;;;10.23;3.72;;;21.50;99.90;;;;;;7292034;32;20654;-58
2023/10/11 11:00:59;;;;;;;11.07;3.80;;;21.60;99.90;;;;;;7293492;32;20696;-58
2023/10/11 11:05:09;;;;;;;15.45;3.92;;;21.50;99.90;;;;;;7291241;32;20108;-55
2023/10/11 11:09:27;;;;;;;14.40;4.57;;;21.60;99.90;;;;;;7292317;32;20230;-56
2023/10/11 11:13:30;;;;;;;13.70;3.83;;;21.60;99.90;;;;;;7295056;32;20123;-57
2023/10/11 11:17:48;;;;;;;13.88;3.87;;;21.60;99.90;;;;;;7287160;32;20190;-55
2023/10/11 11:22:01;;;;;;;16.02;4.30;;;21.70;99.90;;;;;;7293378;32;20131;-55
2023/10/11 11:26:04;;;;;;;13.13;3.22;;;21.70;99.90;;;;;;7292861;32;20623;-58
2023/10/11 11:30:33;;;;;;;10.32;4.10;;;21.70;99.90;;;;;;7296776;32;20116;-56
2023/10/11 11:34:35;;;;;;;12.23;3.85;;;21.70;99.90;;;;;;7295173;32;20187;-56
2023/10/11 11:38:45;;;;;;;12.95;3.85;;;21.80;99.90;;;;;;7295718;32;20861;-57
2023/10/11 11:42:50;;;;;;;17.62;3.83;;;21.80;99.90;;;;;;7293860;32;20181;-55
2023/10/11 11:46:53;;;;;;;21.85;4.43;;;22.00;99.90;;;;;;7296901;32;20170;-59
2023/10/11 11:50:56;;;;;;;11.07;3.45;;;22.10;99.90;;;;;;7296939;32;20226;-60
2023/10/11 11:54:59;;;;;;;15.57;4.20;;;22.00;99.90;;;;;;7292139;32;20134;-61
2023/10/11 11:59:00;;;;;;;14.95;3.90;;;22.00;99.90;;;;;;7296071;32;20179;-59
2023/10/11 12:03:04;;;;;;;14.98;4.45;;;22.20;99.90;;;;;;7291401;32;20236;-61
2023/10/11 12:07:09;;;;;;;12.93;3.75;;;22.10;99.90;;;;;;7291684;32;20214;-59
2023/10/11 12:11:15;;;;;;;21.83;4.68;;;22.10;99.90;;;;;;7290595;32;20223;-58
2023/10/11 12:15:17;;;;;;;16.73;3.58;;;21.90;99.90;;;;;;7290775;32;20133;-59
2023/10/11 12:19:19;;;;;;;14.65;4.32;;;21.80;99.90;;;;;;7292892;32;20117;-56
2023/10/11 12:23:21;;;;;;;17.02;4.45;;;21.90;99.90;;;;;;7299138;32;20222;-57
2023/10/11 12:27:23;;;;;;;13.68;4.18;;;21.80;99.90;;;;;;7298385;32;20135;-58
2023/10/11 12:31:27;;;;;;;12.37;4.00;;;21.90;99.90;;;;;;7296503;32;20123;-56
2023/10/11 12:35:29;;;;;;;12.48;3.67;;;22.10;99.90;;;;;;7300331;32;20108;-56
2023/10/11 12:39:33;;;;;;;18.60;4.12;;;22.10;99.90;;;;;;7294410;32;20104;-57
2023/10/11 12:43:35;;;;;;;18.27;4.20;;;22.20;99.90;;;;;;7296332;32;20234;-56
2023/10/11 12:47:36;;;;;;;14.55;3.62;;;22.30;99.90;;;;;;7303651;32;20258;-57
2023/10/11 12:51:42;;;;;;;12.32;4.00;;;22.30;99.90;;;;;;7300668;32;20104;-57
2023/10/11 12:55:48;;;;;;;14.60;3.65;;;22.30;99.90;;;;;;7299066;32;20120;-59
2023/10/11 12:59:50;;;;;;;;;;;22.50;99.90;;;;;;7298412;32;20183;-57
2023/10/11 13:04:06;;;;;;;11.45;3.62;;;22.50;99.90;;;;;;7302981;32;20054;-57
2023/10/11 13:08:08;;;;;;;11.75;3.62;;;22.60;99.90;;;;;;7295598;32;20201;-55
2023/10/11 13:12:17;;;;;;;10.35;3.90;;;22.60;99.90;;;;;;7296164;32;20450;-55
2023/10/11 13:16:26;;;;;;;10.80;3.22;;;22.50;99.90;;;;;;7297579;32;20168;-56
2023/10/11 13:20:31;;;;;;;11.30;3.60;;;22.50;99.90;;;;;;7292060;32;20130;-56
2023/10/11 13:24:34;;;;;;;14.63;3.60;;;22.50;99.90;;;;;;7302330;32;20103;-56
2023/10/11 13:28:37;;;;;;;11.30;3.85;;;22.50;99.90;;;;;;7304871;32;20215;-58
2023/10/11 13:32:40;;;;;;;15.43;3.92;;;22.60;99.90;;;;;;7303786;32;20145;-58
2023/10/11 13:36:43;;;;;;;11.02;3.42;;;22.60;99.90;;;;;;7301771;32;20219;-56
2023/10/11 13:40:45;;;;;;;14.02;4.20;;;22.70;99.90;;;;;;7298165;32;20134;-54
2023/10/11 13:44:47;;;;;;;11.55;3.03;;;22.80;99.90;;;;;;7300338;32;20112;-54
2023/10/11 13:48:53;;;;;;;13.02;4.25;;;22.90;99.90;;;;;;7302943;32;20168;-59
2023/10/11 13:52:56;;;;;;;12.90;3.17;;;23.10;99.90;;;;;;7300316;32;20275;-54
2023/10/11 13:57:24;;;;;;;12.32;3.30;;;23.10;99.90;;;;;;7304499;32;20143;-55
2023/10/11 14:05:50;;;;;;;14.13;3.37;;;23.30;99.90;;;;;;7299234;32;20221;-62
2023/10/11 14:09:54;;;;;;;12.23;3.72;;;23.00;99.90;;;;;;7294115;32;20174;-58
2023/10/11 14:13:56;;;;;;;12.75;3.58;;;22.90;99.90;;;;;;7302092;32;20210;-58
2023/10/11 14:18:00;;;;;;;10.07;3.47;;;22.70;99.90;;;;;;7297674;32;20108;-56
2023/10/11 14:22:05;;;;;;;11.27;2.87;;;22.50;99.90;;;;;;7293495;32;20134;-58
2023/10/11 14:26:06;;;;;;;9.65;3.30;;;22.40;99.90;;;;;;7298287;32;20229;-58
2023/10/11 14:30:12;;;;;;;12.25;3.62;;;22.50;99.90;;;;;;7303348;32;20194;-58
2023/10/11 14:34:14;;;;;;;14.60;3.77;;;22.40;99.90;;;;;;7303300;32;20182;-58
2023/10/11 14:38:16;;;;;;;14.13;3.50;;;22.50;99.90;;;;;;7297070;32;20171;-57
2023/10/11 14:42:18;;;;;;;9.73;3.08;;;22.50;99.90;;;;;;7302124;32;20384;-56
2023/10/11 14:46:21;;;;;;;13.98;4.18;;;22.40;99.90;;;;;;7301113;32;20674;-58
2023/10/11 14:50:23;;;;;;;11.23;3.67;;;22.40;99.90;;;;;;7301345;32;20120;-58
2023/10/11 14:54:28;;;;;;;13.77;3.60;;;22.40;99.90;;;;;;7301452;32;20277;-58
2023/10/11 14:58:30;;;;;;;15.30;3.65;;;22.40;99.90;;;;;;7295312;32;20104;-57
2023/10/11 15:02:32;;;;;;;13.88;3.47;;;22.50;99.90;;;;;;7292785;32;20168;-56
2023/10/11 15:06:34;;;;;;;15.13;3.97;;;22.50;99.90;;;;;;7296600;32;20142;-62
2023/10/11 15:10:36;;;;;;;9.02;3.33;;;22.40;99.90;;;;;;7299478;32;20510;-56
2023/10/11 15:14:37;;;;;;;12.98;3.15;;;22.20;99.90;;;;;;7293327;32;20218;-59
2023/10/11 15:18:39;;;;;;;16.08;3.85;;;22.20;99.90;;;;;;7299501;32;20123;-54
2023/10/11 15:22:41;;;;;;;10.65;3.50;;;22.10;99.90;;;;;;7298242;32;20255;-56
2023/10/11 15:26:43;;;;;;;10.13;3.12;;;22.10;99.90;;;;;;7294670;32;20525;-55
2023/10/11 15:30:45;;;;;;;14.70;3.75;;;22.00;99.90;;;;;;7293990;32;20123;-54
2023/10/11 15:34:47;;;;;;;16.17;4.68;;;22.10;99.90;;;;;;7294728;32;20115;-54
2023/10/11 15:38:48;;;;;;;15.95;4.00;;;22.10;99.90;;;;;;7293382;32;20116;-54
2023/10/11 15:42:50;;;;;;;14.15;3.80;;;22.00;99.90;;;;;;7292193;32;20231;-54
2023/10/11 15:46:52;;;;;;;16.67;3.72;;;22.10;99.90;;;;;;7296301;32;20167;-56
2023/10/11 15:51:05;;;;;;;11.98;3.37;;;22.00;99.90;;;;;;7297801;32;20104;-53
2023/10/11 15:55:11;;;;;;;14.90;4.30;;;21.90;99.90;;;;;;7294631;32;20198;-55
2023/10/11 15:59:18;;;;;;;15.75;3.42;;;21.70;99.90;;;;;;7299640;32;20115;-56
2023/10/11 16:03:23;;;;;;;;;;;21.70;99.90;;;;;;7294553;32;20182;-56
2023/10/11 16:07:25;;;;;;;16.27;4.40;;;21.60;99.90;;;;;;7293147;32;20053;-57
2023/10/11 16:11:30;;;;;;;12.82;3.75;;;21.50;99.90;;;;;;7290047;32;20263;-54
2023/10/11 16:15:32;;;;;;;13.75;3.53;;;21.20;99.90;;;;;;7292132;32;20234;-56
2023/10/11 16:19:36;;;;;;;10.60;3.50;;;21.10;99.90;;;;;;7299881;32;20199;-54
2023/10/11 16:23:38;;;;;;;13.30;3.55;;;21.00;99.90;;;;;;7301151;32;20157;-54
2023/10/11 16:27:41;;;;;;;14.43;4.28;;;21.00;99.90;;;;;;7304172;32;20199;-57
2023/10/11 16:31:43;;;;;;;12.55;3.28;;;20.80;99.90;;;;;;7303520;32;20570;-58
2023/10/11 16:35:47;;;;;;;12.60;3.75;;;20.70;99.90;;;;;;7303364;32;20128;-58
2023/10/11 16:39:53;;;;;;;;;;;20.70;99.90;;;;;;7302359;32;20126;-58
2023/10/11 16:43:54;;;;;;;9.10;2.83;;;20.60;99.90;;;;;;7299911;32;20059;-58
2023/10/11 16:47:57;;;;;;;7.53;3.53;;;20.40;99.90;;;;;;7298910;32;20172;-57
2023/10/11 16:51:59;;;;;;;9.23;3.37;;;20.30;99.90;;;;;;7302682;32;20120;-56
2023/10/11 16:56:12;;;;;;;12.25;3.00;;;20.10;99.90;;;;;;7303662;32;20203;-57
2023/10/11 17:00:15;;;;;;;8.13;3.25;;;20.00;99.90;;;;;;7299735;32;20514;-56
2023/10/11 17:04:17;;;;;;;11.52;3.10;;;19.90;99.90;;;;;;7300965;32;20107;-56
2023/10/11 17:08:19;;;;;;;13.00;3.00;;;20.00;99.90;;;;;;7290513;32;20578;-57
2023/10/11 17:12:21;;;;;;;11.38;2.90;;;19.80;99.90;;;;;;7298345;32;20147;-56
2023/10/11 17:16:23;;;;;;;6.30;2.72;;;19.70;99.90;;;;;;7297057;32;20115;-58
2023/10/11 17:20:24;;;;;;;6.72;2.97;;;19.60;99.90;;;;;;7297024;32;20130;-58
2023/10/11 17:24:26;;;;;;;9.38;2.85;;;19.60;99.90;;;;;;7297082;32;20111;-57
2023/10/11 17:28:28;;;;;;;10.50;2.95;;;19.50;99.90;;;;;;7301357;32;20584;-56
2023/10/11 17:32:30;;;;;;;11.95;2.70;;;19.50;99.90;;;;;;7295421;32;20234;-56
2023/10/11 17:36:32;;;;;;;7.30;2.62;;;19.50;99.90;;;;;;7295215;32;20172;-58
2023/10/11 17:40:37;;;;;;;14.95;2.60;;;19.60;99.90;;;;;;7299782;32;20112;-57
2023/10/11 17:44:40;;;;;;;8.23;3.22;;;19.70;99.90;;;;;;7294929;32;20198;-56
2023/10/11 17:48:41;;;;;;;9.05;3.10;;;19.80;99.90;;;;;;7303546;32;20513;-57
2023/10/11 17:52:45;;;;;;;7.87;3.35;;;19.70;99.90;;;;;;7296531;32;20624;-56
2023/10/11 17:56:47;;;;;;;8.65;2.78;;;19.60;99.90;;;;;;7297260;32;20132;-56
2023/10/11 18:00:49;;;;;;;5.72;2.45;;;19.50;99.90;;;;;;7302127;32;20528;-56
2023/10/11 18:04:51;;;;;;;11.82;2.97;;;19.50;99.90;;;;;;7293516;32;20193;-57
2023/10/11 18:08:53;;;;;;;9.68;3.17;;;19.50;99.90;;;;;;7293505;32;20183;-56
2023/10/11 18:12:56;;;;;;;8.13;2.60;;;19.40;99.90;;;;;;7300023;32;20173;-58
2023/10/11 18:16:58;;;;;;;12.73;3.30;;;19.20;99.90;;;;;;7296929;32;20548;-56
2023/10/11 18:21:00;;;;;;;9.82;3.05;;;19.20;99.90;;;;;;7293995;32;20456;-56
2023/10/11 18:25:02;;;;;;;10.63;2.90;;;19.20;99.90;;;;;;7287872;32;20140;-56
2023/10/11 18:29:04;;;;;;;11.75;3.33;;;19.10;99.90;;;;;;7291975;32;20116;-56
2023/10/11 18:33:08;;;;;;;11.88;3.70;;;19.10;99.90;;;;;;7301699;32;20175;-56
2023/10/11 18:37:11;;;;;;;11.88;2.97;;;19.00;99.90;;;;;;7293141;32;20124;-55
2023/10/11 18:41:13;;;;;;;8.63;3.33;;;18.90;99.90;;;;;;7301163;32;20621;-56
2023/10/11 18:45:17;;;;;;;6.43;3.12;;;18.80;99.90;;;;;;7293436;32;20566;-56
2023/10/11 18:49:19;;;;;;;9.55;3.15;;;18.70;99.90;;;;;;7291470;32;20119;-56
2023/10/11 18:53:21;;;;;;;9.93;3.28;;;18.70;99.90;;;;;;7288032;32;20284;-55
2023/10/11 18:57:23;;;;;;;9.70;2.53;;;18.60;99.90;;;;;;7290659;32;20117;-56
2023/10/11 19:01:26;;;;;;;11.95;3.35;;;18.50;99.90;;;;;;7291261;32;20238;-56
2023/10/11 19:05:28;;;;;;;11.07;3.87;;;18.60;99.90;;;;;;7293783;32;20218;-55
2023/10/11 19:09:30;;;;;;;10.70;2.92;;;18.50;99.90;;;;;;7293882;32;20494;-56
2023/10/11 19:13:31;;;;;;;9.10;3.05;;;18.40;99.90;;;;;;7296388;32;20112;-56
2023/10/11 19:17:33;;;;;;;8.60;3.12;;;18.40;99.90;;;;;;7299206;32;20112;-57
2023/10/11 19:21:38;;;;;;;12.35;3.55;;;18.40;99.90;;;;;;7292312;32;20112;-56
2023/10/11 19:25:43;;;;;;;9.98;3.17;;;18.40;99.90;;;;;;7295973;32;20238;-56
2023/10/11 19:29:46;;;;;;;9.88;3.28;;;18.50;99.90;;;;;;7295097;32;20112;-56
2023/10/11 19:33:48;;;;;;;9.55;3.65;;;18.60;99.90;;;;;;7295358;32;20286;-56
2023/10/11 19:37:51;;;;;;;12.68;4.50;;;18.60;99.90;;;;;;7297764;32;20134;-56
2023/10/11 19:41:54;;;;;;;9.98;3.65;;;18.70;99.90;;;;;;7291331;32;20112;-56
2023/10/11 19:45:55;;;;;;;13.05;3.53;;;18.60;99.90;;;;;;7290666;32;20136;-56
2023/10/11 19:49:57;;;;;;;13.38;4.28;;;18.70;99.90;;;;;;7297068;32;20171;-55
2023/10/11 19:54:01;;;;;;;9.35;3.75;;;18.60;99.90;;;;;;7295522;32;20135;-56
2023/10/11 19:58:03;;;;;;;7.22;3.17;;;18.60;99.90;;;;;;7297990;32;20135;-57
2023/10/11 20:02:05;;;;;;;9.57;4.25;;;18.60;99.90;;;;;;7302846;32;20502;-56
2023/10/11 20:06:12;;;;;;;11.48;3.85;;;18.50;99.90;;;;;;7299802;32;20226;-55
2023/10/11 20:10:14;;;;;;;8.10;3.60;;;18.50;99.90;;;;;;7299874;32;20321;-56
2023/10/11 20:14:16;;;;;;;14.48;3.60;;;18.50;99.90;;;;;;7295618;32;20108;-56
2023/10/11 20:18:19;;;;;;;10.52;3.53;;;18.60;99.90;;;;;;7303296;32;20262;-56
2023/10/11 20:22:21;;;;;;;12.35;4.10;;;18.60;99.90;;;;;;7301865;32;20552;-57
2023/10/11 20:26:24;;;;;;;11.30;4.03;;;18.60;99.90;;;;;;7295436;32;20544;-56
2023/10/11 20:30:26;;;;;;;9.00;3.53;;;18.70;99.90;;;;;;7299269;32;20116;-56
2023/10/11 20:34:28;;;;;;;18.85;4.05;;;18.70;99.90;;;;;;7296065;32;20212;-56
2023/10/11 20:38:30;;;;;;;18.10;4.18;;;18.70;99.90;;;;;;7295920;32;20209;-56
2023/10/11 20:42:32;;;;;;;10.45;4.10;;;18.60;99.90;;;;;;7300467;32;20208;-56
2023/10/11 20:46:34;;;;;;;11.10;4.00;;;18.60;99.90;;;;;;7300350;32;20447;-56
2023/10/11 20:50:40;;;;;;;14.38;4.20;;;18.70;99.90;;;;;;7296140;32;20130;-56
2023/10/11 20:54:46;;;;;;;12.17;4.23;;;18.60;99.90;;;;;;7293879;32;20140;-56
2023/10/11 20:59:06;;;;;;;11.93;3.70;;;18.60;99.90;;;;;;7291842;32;20260;-56
2023/10/11 21:03:12;;;;;;;11.07;4.03;;;18.70;99.90;;;;;;7299744;32;20597;-56
2023/10/11 21:07:17;;;;;;;14.07;4.18;;;18.80;99.90;;;;;;7300726;32;21055;-55
2023/10/11 21:11:20;;;;;;;13.73;3.80;;;19.00;99.90;;;;;;7297067;32;20173;-56
2023/10/11 21:15:22;;;;;;;9.50;3.60;;;18.80;99.90;;;;;;7299029;32;20341;-56
2023/10/11 21:19:24;;;;;;;11.75;4.00;;;18.90;99.90;;;;;;7301879;32;20167;-56
2023/10/11 21:23:28;;;;;;;9.77;3.67;;;18.90;99.90;;;;;;7301345;32;20239;-56
2023/10/11 21:27:31;;;;;;;9.45;4.30;;;18.90;99.90;;;;;;7292179;32;20134;-56
2023/10/11 21:31:36;;;;;;;11.80;3.75;;;18.90;99.90;;;;;;7294213;32;20104;-56
2023/10/11 21:35:38;;;;;;;11.43;4.32;;;19.10;99.90;;;;;;7296236;32;20142;-56
2023/10/11 21:39:39;;;;;;;13.00;4.03;;;19.10;99.90;;;;;;7297384;32;20212;-57
2023/10/11 21:43:41;;;;;;;10.30;4.05;;;19.30;99.90;;;;;;7301309;32;20228;-56
2023/10/11 21:47:44;;;;;;;12.13;4.18;;;19.10;99.90;;;;;;7298431;32;20140;-56